Time;durP1;ratioP1;P1;durP2;ratioP2;P2;SDS_P1;SDS_P2;PMS_P1;PMS_P2;Temp;Humidity;BMP_temperature;BMP_pressure;BME280_temperature;BME280_humidity;BME280_pressure;Samples;Min_cycle;Max_cycle;Signal;HPM_P1;HPM_P2
2022/12/30 00:01:50;;;;;;;6.50;4.10;;;;;;;7.81;66.98;101153.38;105639;1309;22043;-58
2022/12/30 00:04:16;;;;;;;5.00;3.30;;;;;;;7.77;66.75;101153.85;105659;1307;21964;-58
2022/12/30 00:06:43;;;;;;;4.10;2.80;;;;;;;7.70;66.68;101154.30;105672;1310;22001;-59
2022/12/30 00:09:09;;;;;;;4.90;3.00;;;;;;;7.62;66.86;101156.83;105630;1310;21968;-58
2022/12/30 00:11:35;;;;;;;4.70;2.80;;;;;;;7.54;66.94;101157.77;105612;1310;21970;-58
2022/12/30 00:33:56;;;;;;;5.50;4.00;;;;;;;7.59;67.80;101149.98;105585;1309;21960;-59
2022/12/30 00:36:22;;;;;;;5.40;3.50;;;;;;;7.60;68.11;101149.10;105636;1309;21956;-61
2022/12/30 00:38:48;;;;;;;5.80;4.00;;;;;;;7.66;67.92;101144.98;105606;1306;22005;-58
2022/12/30 00:43:59;;;;;;;7.50;5.10;;;;;;;7.83;68.34;101139.07;105600;1310;21962;-58
2022/12/30 00:46:26;;;;;;;7.30;5.70;;;;;;;7.89;68.33;101137.39;105614;1308;21960;-58
2022/12/30 00:57:05;;;;;;;7.90;5.40;;;;;;;8.05;68.89;101120.26;105627;1309;21969;-58
2022/12/30 00:59:31;;;;;;;6.60;4.70;;;;;;;8.10;68.76;101113.66;105615;1308;21963;-58
2022/12/30 01:01:57;;;;;;;8.00;5.50;;;;;;;8.13;69.15;101111.59;105646;1308;21963;-59
2022/12/30 01:04:24;;;;;;;7.00;5.10;;;;;;;8.17;69.00;101109.88;105791;1310;21965;-60
2022/12/30 01:06:50;;;;;;;9.20;5.90;;;;;;;8.19;69.46;101110.94;105736;1310;21964;-59
2022/12/30 01:09:16;;;;;;;8.20;5.40;;;;;;;8.17;69.79;101108.83;105679;1307;21965;-60
2022/12/30 01:11:41;;;;;;;8.30;5.70;;;;;;;8.16;69.90;101107.42;105629;1306;21956;-59
2022/12/30 01:14:07;;;;;;;7.50;5.80;;;;;;;8.18;69.76;101101.48;105681;1306;21962;-60
2022/12/30 01:16:34;;;;;;;8.40;6.20;;;;;;;8.21;69.61;101098.89;105639;1306;21963;-59
2022/12/30 01:19:00;;;;;;;7.40;5.20;;;;;;;8.25;69.18;101102.95;105657;1306;21958;-59
2022/12/30 01:21:26;;;;;;;7.40;5.60;;;;;;;8.29;69.33;101099.84;105627;1306;21978;-59
2022/12/30 01:23:52;;;;;;;8.50;6.10;;;;;;;8.35;69.10;101096.92;105634;1307;21954;-59
2022/12/30 01:26:18;;;;;;;9.00;6.60;;;;;;;8.39;68.93;101096.25;105624;1307;21954;-59
2022/12/30 01:28:43;;;;;;;8.60;6.00;;;;;;;8.44;68.90;101094.36;105659;1306;23065;-59
2022/12/30 01:31:10;;;;;;;9.20;6.70;;;;;;;8.46;69.04;101091.92;105845;1306;21978;-60
2022/12/30 01:33:36;;;;;;;9.20;6.50;;;;;;;8.47;69.04;101085.30;105847;1306;21969;-61
2022/12/30 01:36:03;;;;;;;9.80;7.10;;;;;;;8.43;69.73;101082.45;105872;1306;23278;-60
2022/12/30 01:38:32;;;;;;;9.40;7.40;;;;;;;8.40;70.05;101077.89;105891;1306;21943;-59
2022/12/30 01:40:58;;;;;;;8.60;6.90;;;;;;;8.39;70.09;101071.61;105845;1306;21971;-60
2022/12/30 01:43:43;;;;;;;8.70;6.60;;;;;;;8.46;69.60;101069.03;105804;1306;21957;-60
2022/12/30 01:46:10;;;;;;;8.80;7.00;;;;;;;8.52;69.29;101070.33;105841;1304;21965;-60
2022/12/30 01:48:37;;;;;;;11.30;7.80;;;;;;;8.47;69.81;101074.63;105767;1307;21997;-60
2022/12/30 01:51:26;;;;;;;10.60;7.60;;;;;;;8.49;69.83;101072.39;105732;1306;23714;-60
2022/12/30 01:53:52;;;;;;;8.10;6.30;;;;;;;8.49;69.84;101071.34;105818;1306;22002;-59
2022/12/30 01:56:22;;;;;;;9.10;6.20;;;;;;;8.46;70.04;101071.65;105654;1307;21965;-62
2022/12/30 01:58:51;;;;;;;;;;;;;;;8.39;70.48;101076.85;105876;1306;21953;-59
2022/12/30 02:01:18;;;;;;;9.60;7.00;;;;;;;8.44;70.06;101078.63;105749;1299;21962;-60
2022/12/30 02:03:46;;;;;;;9.20;6.70;;;;;;;8.49;69.67;101075.73;105693;1307;21971;-59
2022/12/30 02:06:13;;;;;;;9.60;6.90;;;;;;;8.54;69.33;101072.61;105657;1307;21968;-60
2022/12/30 02:08:39;;;;;;;10.10;6.40;;;;;;;8.56;69.20;101071.07;105672;1302;21966;-60
2022/12/30 02:11:05;;;;;;;8.70;5.80;;;;;;;8.59;69.01;101069.52;105617;1310;21967;-60
2022/12/30 02:13:33;;;;;;;9.30;6.70;;;;;;;8.60;69.02;101066.36;105583;1307;21961;-59
2022/12/30 02:16:11;;;;;;;7.50;6.00;;;;;;;8.62;68.68;101071.27;105714;1306;21967;-59
2022/12/30 02:19:03;;;;;;;8.00;5.90;;;;;;;8.58;69.03;101072.12;105815;1308;21960;-60
2022/12/30 02:21:32;;;;;;;8.50;6.40;;;;;;;8.52;68.79;101072.26;105736;1303;22016;-60
2022/12/30 02:24:13;;;;;;;11.30;7.50;;;;;;;8.43;69.14;101077.75;105632;1310;21960;-60
2022/12/30 02:27:31;;;;;;;8.60;6.40;;;;;;;8.46;68.83;101077.25;105608;1310;21978;-60
2022/12/30 02:30:05;;;;;;;9.40;6.70;;;;;;;8.51;68.49;101074.70;105398;1310;23499;-60
2022/12/30 02:32:34;;;;;;;10.70;7.40;;;;;;;8.49;68.41;101073.27;105644;1308;21970;-60
2022/12/30 02:35:06;;;;;;;9.40;6.60;;;;;;;8.43;68.30;101077.40;105628;1310;21967;-60
2022/12/30 02:37:36;;;;;;;10.60;6.90;;;;;;;8.48;68.33;101084.09;105647;1310;22099;-60
2022/12/30 02:44:36;;;;;;;14.00;8.30;;;;;;;8.47;68.09;101081.46;105726;1310;21959;-61
2022/12/30 02:46:10;;;;;;;9.20;6.70;;;;;;;8.54;67.75;101076.64;105596;1308;21961;-60
2022/12/30 02:48:36;;;;;;;10.40;7.00;;;;;;;8.52;67.54;101075.40;105616;1309;23073;-60
2022/12/30 02:53:48;;;;;;;12.10;8.40;;;;;;;8.50;67.17;101072.92;105630;1309;21968;-60
2022/12/30 02:56:13;;;;;;;15.00;8.60;;;;;;;8.48;67.07;101073.77;105586;1310;21965;-60
2022/12/30 02:58:43;;;;;;;12.90;8.40;;;;;;;8.46;66.99;101073.23;105598;1310;21968;-60
2022/12/30 03:04:09;;;;;;;;;;;;;;;8.44;66.90;101072.34;105860;1304;21943;-59
2022/12/30 03:06:52;;;;;;;12.70;8.50;;;;;;;8.41;66.90;101069.34;105695;1310;21952;-60
2022/12/30 03:09:38;;;;;;;11.00;7.30;;;;;;;8.40;66.84;101069.15;105665;1306;21967;-60
2022/12/30 03:12:15;;;;;;;12.00;7.40;;;;;;;8.41;66.87;101067.92;105666;1307;22020;-61
2022/12/30 03:14:59;;;;;;;10.90;7.00;;;;;;;8.44;66.87;101070.23;105800;1306;23784;-61
2022/12/30 03:17:31;;;;;;;11.30;7.80;;;;;;;8.49;66.59;101067.50;105763;1307;21955;-61
2022/12/30 03:19:59;;;;;;;18.30;11.00;;;;;;;8.46;66.35;101071.13;105759;1307;21947;-59
2022/12/30 03:27:55;;;;;;;33.20;20.30;;;;;;;8.42;66.09;101077.90;105689;1306;21963;-59
2022/12/30 03:30:21;;;;;;;35.50;19.70;;;;;;;8.44;66.08;101077.23;105761;1307;21967;-59
2022/12/30 03:32:47;;;;;;;21.00;12.20;;;;;;;8.44;66.00;101074.78;105762;1306;21959;-60
2022/12/30 03:35:12;;;;;;;16.10;9.40;;;;;;;8.51;65.81;101073.63;105705;1306;21961;-60
2022/12/30 03:37:48;;;;;;;19.60;12.00;;;;;;;8.46;65.69;101070.43;105697;1304;22122;-58
2022/12/30 03:40:26;;;;;;;30.50;17.50;;;;;;;8.43;65.70;101070.22;105767;1307;21961;-59
2022/12/30 03:42:52;;;;;;;21.00;14.60;;;;;;;8.42;65.59;101070.91;105836;1306;22052;-59
2022/12/30 03:45:18;;;;;;;17.00;11.00;;;;;;;8.42;65.56;101066.19;105813;1307;21956;-59
2022/12/30 03:47:44;;;;;;;14.20;8.20;;;;;;;8.41;65.55;101061.64;105683;1306;21976;-59
2022/12/30 03:50:10;;;;;;;11.20;8.70;;;;;;;8.38;65.48;101064.77;105722;1306;21965;-60
2022/12/30 03:52:36;;;;;;;10.00;7.60;;;;;;;8.39;65.35;101063.73;105831;1304;21958;-59
2022/12/30 03:55:02;;;;;;;13.10;8.60;;;;;;;8.36;65.40;101066.86;105713;1307;21954;-61
2022/12/30 03:57:28;;;;;;;13.90;8.30;;;;;;;8.34;65.40;101063.88;104942;1305;1002655;-60
2022/12/30 03:59:54;;;;;;;11.10;7.20;;;;;;;8.37;65.38;101062.67;105609;1307;21970;-59
2022/12/30 04:02:20;;;;;;;13.10;8.30;;;;;;;8.36;65.42;101062.13;105627;1306;21965;-59
2022/12/30 04:04:46;;;;;;;13.60;8.80;;;;;;;8.31;65.29;101063.84;105657;1306;21971;-60
2022/12/30 04:07:12;;;;;;;12.60;8.20;;;;;;;8.31;65.19;101063.67;105593;1307;21999;-59
2022/12/30 04:09:39;;;;;;;18.30;10.10;;;;;;;8.28;65.30;101063.29;105664;1306;21957;-60
2022/12/30 04:12:05;;;;;;;14.60;9.00;;;;;;;8.23;65.01;101058.52;105619;1307;21960;-59
2022/12/30 04:14:31;;;;;;;21.50;10.20;;;;;;;8.24;65.00;101056.26;105705;1307;21963;-59
2022/12/30 04:16:56;;;;;;;15.90;9.00;;;;;;;8.37;64.65;101059.16;105670;1306;21962;-59
2022/12/30 04:19:22;;;;;;;13.10;8.40;;;;;;;8.43;64.64;101060.27;105612;1307;21954;-59
2022/12/30 04:21:48;;;;;;;15.70;9.70;;;;;;;8.41;64.77;101062.70;105645;1307;21961;-59
2022/12/30 04:24:14;;;;;;;14.00;8.10;;;;;;;8.26;64.97;101062.40;105623;1306;21962;-60
2022/12/30 04:26:41;;;;;;;11.40;7.60;;;;;;;8.26;64.69;101055.58;105648;1306;21955;-59
2022/12/30 04:29:07;;;;;;;13.70;8.30;;;;;;;8.22;64.66;101052.73;105621;1306;21962;-59
2022/12/30 04:31:33;;;;;;;17.40;9.40;;;;;;;8.19;64.51;101050.98;105698;1306;22002;-59
2022/12/30 04:33:59;;;;;;;13.50;9.30;;;;;;;8.16;64.28;101052.00;105622;1306;21968;-59
2022/12/30 04:36:27;;;;;;;14.00;8.70;;;;;;;8.13;64.18;101053.20;105644;1306;21958;-60
2022/12/30 04:38:54;;;;;;;12.10;9.20;;;;;;;8.08;64.18;101053.68;105678;1306;23812;-60
2022/12/30 04:41:20;;;;;;;12.90;8.30;;;;;;;8.05;64.24;101057.15;105615;1307;21966;-61
2022/12/30 04:43:48;;;;;;;13.90;8.40;;;;;;;8.11;63.91;101059.31;105660;1306;23647;-60
2022/12/30 04:46:14;;;;;;;13.90;9.80;;;;;;;8.17;63.68;101063.02;105760;1298;21958;-59
2022/12/30 04:48:40;;;;;;;12.70;8.70;;;;;;;8.17;63.58;101067.39;105633;1306;21962;-57
2022/12/30 04:51:06;;;;;;;11.10;7.50;;;;;;;8.13;63.74;101069.98;105642;1307;22020;-58
2022/12/30 04:53:32;;;;;;;13.80;9.50;;;;;;;8.20;63.62;101066.71;105638;1307;21955;-58
2022/12/30 04:55:58;;;;;;;17.00;10.50;;;;;;;8.21;63.55;101060.61;105603;1306;21959;-58
2022/12/30 04:58:25;;;;;;;15.40;9.80;;;;;;;8.21;63.65;101057.11;105813;1306;21960;-59
2022/12/30 05:00:51;;;;;;;13.90;9.50;;;;;;;8.22;63.61;101059.21;105782;1306;21976;-59
2022/12/30 05:03:17;;;;;;;13.90;9.60;;;;;;;8.20;63.59;101056.23;105774;1307;21967;-58
2022/12/30 05:05:44;;;;;;;14.70;9.90;;;;;;;8.21;63.56;101056.58;105808;1306;21955;-58
2022/12/30 05:08:10;;;;;;;15.50;9.90;;;;;;;8.17;63.42;101052.53;105713;1307;21963;-58
2022/12/30 05:10:37;;;;;;;12.30;9.00;;;;;;;8.17;63.69;101052.36;105609;1307;21967;-59
2022/12/30 05:13:03;;;;;;;17.30;11.30;;;;;;;8.20;63.84;101051.15;105863;1306;21978;-58
2022/12/30 05:15:29;;;;;;;19.00;10.00;;;;;;;8.16;63.92;101050.42;105758;1307;21954;-58
2022/12/30 05:17:54;;;;;;;19.10;10.90;;;;;;;8.20;63.96;101052.73;105791;1306;21964;-57
2022/12/30 05:20:21;;;;;;;15.20;9.80;;;;;;;8.26;63.83;101057.34;105683;1309;21971;-59
2022/12/30 05:22:47;;;;;;;14.90;9.90;;;;;;;8.29;63.53;101059.44;105675;1306;21954;-59
2022/12/30 05:27:58;;;;;;;15.00;10.10;;;;;;;8.23;63.24;101063.41;105617;1310;21963;-57
2022/12/30 05:30:24;;;;;;;13.50;8.60;;;;;;;8.17;63.20;101065.64;105595;1310;21962;-59
2022/12/30 05:32:51;;;;;;;15.10;9.50;;;;;;;8.12;62.99;101065.79;105623;1310;22008;-57
2022/12/30 05:35:16;;;;;;;14.10;9.60;;;;;;;8.08;62.94;101064.52;105713;1310;21958;-57
2022/12/30 05:37:44;;;;;;;17.10;10.30;;;;;;;8.03;62.76;101061.69;105792;1310;22024;-58
2022/12/30 05:40:11;;;;;;;17.40;10.50;;;;;;;7.97;62.37;101061.10;105630;1310;21968;-58
2022/12/30 05:42:36;;;;;;;16.40;10.40;;;;;;;7.92;62.43;101063.86;105648;1310;21960;-59
2022/12/30 05:45:03;;;;;;;18.00;10.90;;;;;;;7.87;62.51;101068.17;105721;1304;21954;-60
2022/12/30 05:47:29;;;;;;;16.90;11.00;;;;;;;7.86;62.54;101077.41;105797;1310;22000;-60
2022/12/30 05:49:55;;;;;;;17.10;10.50;;;;;;;7.68;63.01;101081.60;105784;1310;21978;-60
2022/12/30 05:52:21;;;;;;;15.50;10.40;;;;;;;7.67;62.89;101080.20;105657;1295;21985;-59
2022/12/30 05:54:47;;;;;;;17.50;11.50;;;;;;;7.72;62.58;101078.85;105604;1309;22064;-58
2022/12/30 05:57:16;;;;;;;16.80;11.20;;;;;;;7.76;62.77;101080.29;105654;1307;21960;-58
2022/12/30 05:59:41;;;;;;;19.40;11.80;;;;;;;7.78;62.98;101082.40;105609;1303;21980;-58
2022/12/30 06:02:07;;;;;;;17.70;11.50;;;;;;;7.60;63.39;101082.73;105689;1307;22222;-58
2022/12/30 06:04:34;;;;;;;16.50;10.50;;;;;;;7.58;63.40;101082.02;105676;1307;23844;-58
2022/12/30 06:07:02;;;;;;;20.60;11.80;;;;;;;7.44;63.93;101086.06;105686;1309;21958;-58
2022/12/30 06:09:28;;;;;;;19.10;12.00;;;;;;;7.34;64.44;101086.27;105612;1306;21995;-60
2022/12/30 06:11:54;;;;;;;16.60;11.70;;;;;;;7.41;64.52;101083.05;105624;1307;21957;-59
2022/12/30 06:14:22;;;;;;;17.40;11.80;;;;;;;7.54;64.37;101084.77;105626;1303;21965;-59
2022/12/30 06:16:48;;;;;;;20.30;12.80;;;;;;;7.71;64.01;101086.86;105767;1307;21962;-60
2022/12/30 06:19:14;;;;;;;19.50;12.40;;;;;;;7.65;64.05;101091.36;105711;1307;21960;-59
2022/12/30 06:21:40;;;;;;;20.00;12.40;;;;;;;7.65;64.02;101095.00;105723;1307;21954;-60
2022/12/30 06:24:06;;;;;;;18.20;11.70;;;;;;;7.67;63.90;101091.02;105691;1306;21975;-60
2022/12/30 06:26:34;;;;;;;16.60;11.40;;;;;;;7.68;63.90;101087.89;105698;1307;23081;-60
2022/12/30 06:29:01;;;;;;;17.10;11.40;;;;;;;7.63;63.80;101086.45;105737;1307;22000;-60
2022/12/30 06:31:29;;;;;;;19.20;10.90;;;;;;;7.63;63.53;101086.96;105626;1310;21957;-61
2022/12/30 06:33:55;;;;;;;17.30;11.30;;;;;;;7.64;63.77;101089.25;105573;1311;21957;-63
2022/12/30 06:36:22;;;;;;;27.80;18.30;;;;;;;7.73;63.59;101090.38;105892;1307;23679;-62
2022/12/30 06:38:48;;;;;;;22.50;16.20;;;;;;;7.87;63.52;101086.52;105806;1307;21961;-61
2022/12/30 06:41:13;;;;;;;24.70;16.60;;;;;;;7.90;63.38;101084.80;105727;1307;23687;-59
2022/12/30 06:43:39;;;;;;;25.20;15.50;;;;;;;7.94;63.49;101084.67;105633;1307;22020;-59
2022/12/30 06:46:05;;;;;;;20.90;13.10;;;;;;;7.98;63.07;101088.02;105676;1307;21970;-58
2022/12/30 06:48:31;;;;;;;19.50;11.50;;;;;;;8.07;63.20;101091.60;105660;1299;21962;-59
2022/12/30 06:51:00;;;;;;;18.40;11.80;;;;;;;8.12;63.01;101093.58;105647;1305;22049;-59
2022/12/30 06:53:26;;;;;;;19.50;13.90;;;;;;;8.14;62.94;101087.30;105624;1311;24318;-59
2022/12/30 06:55:52;;;;;;;21.90;11.70;;;;;;;8.16;63.16;101085.58;105781;1311;21958;-59
2022/12/30 06:58:17;;;;;;;18.80;12.30;;;;;;;8.18;63.30;101086.98;105625;1311;21971;-59
2022/12/30 07:00:43;;;;;;;19.30;13.10;;;;;;;8.29;63.27;101093.38;105630;1308;21962;-59
2022/12/30 07:03:11;;;;;;;19.90;12.10;;;;;;;8.43;63.14;101096.29;105635;1310;22022;-59
2022/12/30 07:05:37;;;;;;;19.70;12.10;;;;;;;8.49;62.95;101100.02;105753;1309;21962;-59
2022/12/30 07:08:04;;;;;;;21.20;13.60;;;;;;;8.54;62.75;101102.36;105633;1298;22001;-58
2022/12/30 07:10:32;;;;;;;22.40;15.50;;;;;;;8.60;62.62;101105.37;105609;1307;23061;-60
2022/12/30 07:12:58;;;;;;;33.20;20.40;;;;;;;8.63;62.42;101108.02;105700;1309;21953;-60
2022/12/30 07:15:25;;;;;;;28.90;17.40;;;;;;;8.68;62.48;101109.27;105807;1305;21951;-60
2022/12/30 07:17:51;;;;;;;23.70;15.90;;;;;;;8.65;62.74;101112.92;105780;1311;21998;-59
2022/12/30 07:20:17;;;;;;;20.40;13.90;;;;;;;8.56;63.39;101114.60;105615;1305;21956;-59
2022/12/30 07:22:44;;;;;;;21.50;14.90;;;;;;;8.62;63.62;101115.00;105755;1307;23783;-60
2022/12/30 07:25:10;;;;;;;24.50;15.20;;;;;;;8.69;63.64;101123.27;105833;1309;21961;-59
2022/12/30 07:27:37;;;;;;;21.50;14.40;;;;;;;8.77;63.65;101123.52;105718;1307;21955;-58
2022/12/30 07:30:04;;;;;;;27.60;15.20;;;;;;;8.85;63.77;101125.66;105798;1307;21960;-60
2022/12/30 07:32:30;;;;;;;22.60;14.90;;;;;;;9.00;63.55;101123.84;105842;1307;22799;-59
2022/12/30 07:34:59;;;;;;;22.60;14.50;;;;;;;9.05;63.41;101126.84;105864;1307;21976;-59
2022/12/30 07:37:25;;;;;;;22.20;14.10;;;;;;;9.20;63.26;101132.54;105683;1307;21999;-60
2022/12/30 07:39:50;;;;;;;18.80;13.20;;;;;;;9.30;63.26;101135.38;105292;1307;1002204;-58
2022/12/30 07:42:16;;;;;;;21.40;13.90;;;;;;;9.38;63.20;101135.25;106016;1307;21970;-59
2022/12/30 07:44:44;;;;;;;21.60;13.60;;;;;;;9.40;63.34;101134.91;106045;1307;21969;-59
2022/12/30 07:47:09;;;;;;;20.80;13.30;;;;;;;9.47;63.27;101138.46;105936;1307;22421;-58
2022/12/30 07:49:36;;;;;;;17.40;12.80;;;;;;;9.54;62.99;101141.98;105931;1307;21986;-58
2022/12/30 07:52:04;;;;;;;21.10;14.70;;;;;;;9.59;62.32;101140.60;105956;1307;21957;-59
2022/12/30 07:54:30;;;;;;;21.80;14.60;;;;;;;9.65;62.15;101151.30;105990;1306;21968;-59
2022/12/30 07:56:56;;;;;;;25.20;14.50;;;;;;;9.66;61.94;101145.71;105716;1310;21972;-60
2022/12/30 07:59:21;;;;;;;24.80;15.60;;;;;;;9.69;62.00;101145.90;106049;1310;21954;-60
2022/12/30 08:01:47;;;;;;;22.20;14.20;;;;;;;9.73;61.93;101152.21;106075;1307;21954;-58
2022/12/30 08:04:15;;;;;;;23.30;14.80;;;;;;;9.80;61.82;101146.80;105994;1310;21960;-58
2022/12/30 08:06:41;;;;;;;23.20;15.70;;;;;;;9.88;62.19;101145.27;106008;1307;21971;-58
2022/12/30 08:09:06;;;;;;;25.20;14.10;;;;;;;10.00;62.32;101147.92;105955;1310;21967;-57
2022/12/30 08:11:33;;;;;;;24.20;15.30;;;;;;;10.09;62.18;101150.57;105940;1306;21986;-58
2022/12/30 08:13:59;;;;;;;19.60;14.60;;;;;;;10.23;62.14;101155.85;105980;1307;21940;-58
2022/12/30 08:16:24;;;;;;;21.50;13.80;;;;;;;10.34;62.13;101157.63;105992;1310;21947;-57
2022/12/30 08:18:51;;;;;;;23.60;15.90;;;;;;;10.40;61.88;101159.41;105964;1307;21960;-59
2022/12/30 08:21:17;;;;;;;23.50;14.90;;;;;;;10.43;61.71;101159.94;105971;1307;22438;-59
2022/12/30 08:23:44;;;;;;;21.40;15.20;;;;;;;10.44;61.57;101159.77;105981;1307;22008;-60
2022/12/30 08:26:14;;;;;;;21.80;14.00;;;;;;;10.54;61.97;101154.16;106059;1308;21963;-61
2022/12/30 08:28:40;;;;;;;;;;;;;;;10.65;62.10;101147.67;105988;1307;21953;-60
2022/12/30 08:31:11;;;;;;;21.50;15.00;;;;;;;10.77;62.09;101145.56;105943;1294;21962;-61
2022/12/30 08:33:37;;;;;;;23.70;15.10;;;;;;;10.86;62.07;101144.85;105663;1308;21975;-61
2022/12/30 08:36:04;;;;;;;24.30;16.20;;;;;;;10.96;62.13;101138.67;106013;1307;22064;-61
2022/12/30 08:38:30;;;;;;;26.50;17.50;;;;;;;11.02;61.76;101134.63;106062;1307;21954;-60
2022/12/30 08:41:06;;;;;;;23.80;16.80;;;;;;;11.06;61.78;101131.81;106066;1307;22008;-59
2022/12/30 08:43:32;;;;;;;26.10;17.00;;;;;;;11.05;62.43;101128.30;106080;1301;21966;-60
2022/12/30 08:46:09;;;;;;;28.30;18.40;;;;;;;11.14;62.52;101124.95;106062;1307;21962;-59
2022/12/30 08:48:35;;;;;;;24.00;16.70;;;;;;;11.20;62.82;101121.59;105981;1307;21965;-59
2022/12/30 08:51:01;;;;;;;21.50;14.40;;;;;;;11.31;62.54;101120.33;106063;1307;22005;-61
2022/12/30 08:53:27;;;;;;;22.00;14.90;;;;;;;11.43;63.31;101123.97;105677;1307;21951;-61
2022/12/30 08:56:07;;;;;;;22.10;14.10;;;;;;;11.58;63.35;101116.87;105994;1307;21965;-60
2022/12/30 08:58:34;;;;;;;19.50;14.00;;;;;;;11.72;63.05;101110.65;105730;1308;21953;-59
2022/12/30 09:01:16;;;;;;;21.60;15.10;;;;;;;11.82;61.95;101107.95;106079;1307;22019;-59
2022/12/30 09:03:42;;;;;;;19.30;13.60;;;;;;;11.76;62.04;101103.77;106042;1305;22017;-59
2022/12/30 09:06:09;;;;;;;23.50;15.70;;;;;;;11.78;62.50;101100.77;105262;1307;1002314;-60
2022/12/30 09:08:35;;;;;;;19.20;13.90;;;;;;;11.81;62.37;101105.34;106021;1305;22008;-60
2022/12/30 09:11:05;;;;;;;24.70;14.60;;;;;;;11.82;62.21;101106.38;106014;1307;21956;-60
2022/12/30 09:13:31;;;;;;;19.90;14.20;;;;;;;11.88;62.62;101103.17;106011;1306;21975;-59
2022/12/30 09:15:58;;;;;;;23.00;15.60;;;;;;;11.91;61.98;101096.83;106024;1307;21970;-61
2022/12/30 09:18:24;;;;;;;20.20;14.50;;;;;;;11.94;62.13;101097.70;106013;1307;21952;-60
2022/12/30 09:20:49;;;;;;;20.20;14.00;;;;;;;11.98;62.62;101099.07;106050;1307;21967;-59
2022/12/30 09:23:15;;;;;;;23.90;14.70;;;;;;;12.03;62.89;101100.83;106043;1307;21960;-61
2022/12/30 09:25:41;;;;;;;20.60;13.80;;;;;;;12.05;62.42;101103.80;106050;1307;22000;-59
2022/12/30 09:28:07;;;;;;;20.80;14.90;;;;;;;12.08;62.12;101102.91;106058;1308;21958;-59
2022/12/30 09:30:36;;;;;;;20.10;14.00;;;;;;;12.06;61.54;101098.17;106028;1307;24282;-60
2022/12/30 09:33:02;;;;;;;20.40;15.50;;;;;;;12.03;61.22;101094.14;106054;1307;21947;-59
2022/12/30 09:35:28;;;;;;;16.90;12.80;;;;;;;12.18;62.10;101095.27;106011;1307;21974;-60
2022/12/30 09:37:54;;;;;;;21.30;13.90;;;;;;;12.42;62.33;101098.41;105900;1307;21974;-60
2022/12/30 09:40:29;;;;;;;17.80;12.40;;;;;;;12.58;62.84;101096.89;104538;1307;1002418;-60
2022/12/30 09:45:52;;;;;;;19.30;13.40;;;;;;;12.82;62.61;101083.42;105779;1307;21977;-59
2022/12/30 09:48:32;;;;;;;18.60;13.50;;;;;;;12.92;63.26;101072.07;106108;1306;21957;-60
2022/12/30 09:51:01;;;;;;;20.30;13.90;;;;;;;13.03;62.65;101069.83;105973;1305;21993;-61
2022/12/30 09:53:30;;;;;;;20.80;13.70;;;;;;;13.14;62.05;101068.46;105997;1307;23825;-60
2022/12/30 09:55:57;;;;;;;17.90;14.00;;;;;;;13.23;62.42;101066.77;106069;1304;21971;-59
2022/12/30 09:58:34;;;;;;;18.60;13.70;;;;;;;13.28;61.80;101064.59;105686;1307;21954;-59
2022/12/30 10:01:10;;;;;;;20.90;13.60;;;;;;;13.35;62.14;101062.57;106031;1307;21968;-59
2022/12/30 10:03:37;;;;;;;20.80;14.10;;;;;;;13.45;61.88;101063.52;106039;1307;21968;-60
2022/12/30 10:06:09;;;;;;;20.20;14.60;;;;;;;13.48;61.92;101055.38;105986;1296;21962;-59
2022/12/30 10:15:08;;;;;;;21.80;15.30;;;;;;;10.40;79.37;101067.48;106916;1291;548188;-66
2022/12/30 10:18:02;;;;;;;21.30;14.60;;;;;;;13.09;64.87;101054.23;107065;1293;21988;-66
2022/12/30 10:20:41;;;;;;;19.70;14.60;;;;;;;13.27;60.69;101057.38;107120;1295;22035;-62
2022/12/30 10:23:14;;;;;;;24.80;17.40;;;;;;;13.38;59.19;101048.09;107306;1295;21962;-63
2022/12/30 10:25:45;;;;;;;21.10;16.50;;;;;;;13.53;60.35;101040.67;106898;1294;312685;-63
2022/12/30 10:28:13;;;;;;;22.00;13.90;;;;;;;13.71;61.08;101031.59;107283;1288;21949;-66
2022/12/30 10:30:48;;;;;;;20.40;13.20;;;;;;;13.90;61.57;101029.54;107310;1293;21953;-62
2022/12/30 10:33:21;;;;;;;19.40;14.20;;;;;;;14.11;61.31;101025.67;107142;1296;21967;-66
2022/12/30 10:35:49;;;;;;;22.40;15.60;;;;;;;14.31;60.28;101025.71;107325;1292;21950;-66
2022/12/30 10:38:16;;;;;;;18.20;13.80;;;;;;;14.45;60.59;101022.98;107324;1291;21947;-62
2022/12/30 10:40:48;;;;;;;23.40;14.20;;;;;;;14.58;60.23;101023.27;107316;1289;21945;-62
2022/12/30 10:43:39;;;;;;;19.00;15.00;;;;;;;14.65;59.49;101024.02;107316;1296;22145;-62
2022/12/30 10:46:40;;;;;;;22.00;14.90;;;;;;;14.59;59.69;101023.61;107439;1291;22510;-66
2022/12/30 10:49:24;;;;;;;18.60;13.40;;;;;;;14.63;59.82;101017.88;106397;1300;21976;-65
2022/12/30 10:51:50;;;;;;;19.50;13.40;;;;;;;14.62;58.32;101014.02;107141;1295;22820;-62
2022/12/30 10:54:17;;;;;;;17.70;14.00;;;;;;;14.62;58.02;101014.71;106380;1295;1002237;-66
2022/12/30 10:56:42;;;;;;;18.00;13.20;;;;;;;14.60;57.51;101018.65;107278;1295;21986;-66
2022/12/30 10:59:16;;;;;;;20.60;13.60;;;;;;;14.54;56.80;101019.83;107285;1292;21989;-62
2022/12/30 11:01:42;;;;;;;18.10;12.50;;;;;;;14.58;57.15;101012.33;107305;1296;22118;-66
2022/12/30 11:04:14;;;;;;;16.50;12.30;;;;;;;14.56;56.76;101009.55;107276;1291;21931;-61
2022/12/30 11:06:40;;;;;;;17.60;13.10;;;;;;;14.61;56.38;101007.32;107091;1296;21966;-62
2022/12/30 11:09:12;;;;;;;18.60;12.90;;;;;;;14.68;56.60;101011.27;107272;1292;21959;-66
2022/12/30 11:14:42;;;;;;;19.80;13.90;;;;;;;14.63;55.08;101011.72;107271;1293;21959;-61
2022/12/30 11:17:27;;;;;;;23.40;15.50;;;;;;;14.66;54.87;101009.17;107388;1294;21934;-67
2022/12/30 11:19:55;;;;;;;18.40;12.70;;;;;;;14.70;54.57;101004.16;107296;1296;21982;-61
2022/12/30 11:22:22;;;;;;;17.30;13.20;;;;;;;14.70;54.58;101000.98;106469;1298;1002889;-61
2022/12/30 11:25:03;;;;;;;20.80;14.50;;;;;;;14.67;53.92;101002.13;107258;1295;21985;-61
2022/12/30 11:27:36;;;;;;;18.90;13.20;;;;;;;14.77;55.33;101005.64;107323;1296;21958;-66
2022/12/30 11:30:03;;;;;;;19.20;13.30;;;;;;;14.91;56.10;101012.77;107314;1295;23088;-65
2022/12/30 11:32:29;;;;;;;15.20;11.80;;;;;;;14.93;55.05;101013.80;107391;1295;21953;-67
2022/12/30 11:34:55;;;;;;;20.10;12.20;;;;;;;15.02;55.88;101006.38;107128;1291;21962;-66
2022/12/30 11:37:36;;;;;;;17.80;13.00;;;;;;;15.04;54.92;101001.38;107248;1293;21944;-61
2022/12/30 11:40:24;;;;;;;17.10;12.90;;;;;;;15.00;53.77;100992.45;107262;1291;23072;-65
2022/12/30 11:43:15;;;;;;;17.70;13.10;;;;;;;14.98;53.66;100987.54;107289;1294;21963;-66
2022/12/30 11:45:57;;;;;;;16.50;12.00;;;;;;;14.82;52.42;100976.39;107337;1292;21957;-61
2022/12/30 11:48:53;;;;;;;17.10;11.20;;;;;;;14.85;52.81;100966.97;107231;1295;21967;-67
2022/12/30 11:51:21;;;;;;;15.50;10.80;;;;;;;14.81;52.26;100959.81;107130;1294;21938;-66
2022/12/30 11:53:47;;;;;;;16.50;12.30;;;;;;;14.81;52.83;100951.67;107264;1294;21949;-61
2022/12/30 11:56:19;;;;;;;17.40;12.70;;;;;;;14.86;53.82;100945.05;107290;1292;21954;-66
2022/12/30 11:58:45;;;;;;;17.10;12.40;;;;;;;14.87;53.53;100926.83;107268;1292;21950;-66
2022/12/30 12:01:11;;;;;;;16.20;11.60;;;;;;;14.96;54.06;100913.73;107254;1291;21947;-61
2022/12/30 12:03:55;;;;;;;18.20;11.40;;;;;;;14.79;52.22;100917.27;107114;1294;22422;-61
2022/12/30 12:06:21;;;;;;;16.10;11.70;;;;;;;14.77;52.42;100922.44;107361;1291;21942;-61
2022/12/30 12:09:04;;;;;;;14.50;11.30;;;;;;;14.84;53.08;100936.59;107280;1295;21956;-67
2022/12/30 12:11:32;;;;;;;18.70;12.60;;;;;;;14.88;52.60;100938.10;107418;1289;22034;-66
2022/12/30 12:14:13;;;;;;;19.80;12.00;;;;;;;14.96;52.03;100932.63;107188;1294;21963;-66
2022/12/30 12:16:50;;;;;;;16.70;11.40;;;;;;;15.02;52.13;100926.66;107289;1291;21989;-67
2022/12/30 12:19:18;;;;;;;13.90;11.20;;;;;;;15.21;53.15;100922.71;107209;1294;22162;-61
2022/12/30 12:21:43;;;;;;;15.80;11.40;;;;;;;15.30;52.76;100922.68;107274;1291;21955;-61